CCASC SCTB-SCEL
Flight info
| Callsign | CCASC |
|---|---|
| Flight time | 0h 8m |
| Altitude | 4000 |
| Route | DCT |
| Aircraft | BE36/L-SD/C |
Departure
| Time | 2026-04-26 21:03 |
|---|---|
| Airport | Eulogio Sánchez Airport (SCTB) |
Arrival
| Time | 2026-04-26 21:11 |
|---|---|
| Airport | Comodoro Arturo Merino Benítez International Airport (SCEL) |
| Time | Latitude | Longitude | Altitude | Speed | Heading |
|---|---|---|---|---|---|
| 2026-04-26 20:57 | -33.45596 | -70.54792 | 2133 ft | 0 kts | 11° |
| 2026-04-26 20:59 | -33.45586 | -70.54790 | 2133 ft | 4 kts | 12° |
| 2026-04-26 21:00 | -33.45546 | -70.54742 | 2133 ft | 13 kts | 15° |
| 2026-04-26 21:00 | -33.45447 | -70.54716 | 2133 ft | 16 kts | 15° |
| 2026-04-26 21:00 | -33.45350 | -70.54691 | 2133 ft | 13 kts | 10° |
| 2026-04-26 21:00 | -33.45269 | -70.54665 | 2133 ft | 11 kts | 18° |
| 2026-04-26 21:01 | -33.45187 | -70.54643 | 2133 ft | 14 kts | 15° |
| 2026-04-26 21:01 | -33.45117 | -70.54595 | 2133 ft | 10 kts | 92° |
| 2026-04-26 21:01 | -33.45149 | -70.54532 | 2133 ft | 8 kts | 202° |
| 2026-04-26 21:01 | -33.45305 | -70.54580 | 2132 ft | 54 kts | 193° |
| 2026-04-26 21:02 | -33.45856 | -70.54747 | 2138 ft | 107 kts | 197° |
| 2026-04-26 21:02 | -33.46087 | -70.54819 | 2264 ft | 103 kts | 191° |
| 2026-04-26 21:02 | -33.46151 | -70.54833 | 2319 ft | 102 kts | 191° |
| 2026-04-26 21:02 | -33.46227 | -70.54848 | 2347 ft | 104 kts | 188° |
| 2026-04-26 21:03 | -33.46586 | -70.54895 | 2524 ft | 105 kts | 184° |
| 2026-04-26 21:03 | -33.47054 | -70.54949 | 2814 ft | 100 kts | 191° |
| 2026-04-26 21:03 | -33.47612 | -70.55439 | 3009 ft | 111 kts | 254° |
| 2026-04-26 21:03 | -33.47389 | -70.56367 | 3115 ft | 126 kts | 298° |
| 2026-04-26 21:04 | -33.46976 | -70.57298 | 3389 ft | 123 kts | 296° |
| 2026-04-26 21:04 | -33.46615 | -70.58213 | 3624 ft | 125 kts | 292° |
| 2026-04-26 21:04 | -33.46307 | -70.59207 | 3845 ft | 127 kts | 289° |
| 2026-04-26 21:04 | -33.45979 | -70.60188 | 4034 ft | 129 kts | 296° |
| 2026-04-26 21:05 | -33.45496 | -70.61140 | 3981 ft | 139 kts | 305° |
| 2026-04-26 21:05 | -33.44868 | -70.62055 | 3980 ft | 143 kts | 313° |
| 2026-04-26 21:05 | -33.44133 | -70.62869 | 3993 ft | 145 kts | 321° |
| 2026-04-26 21:05 | -33.43311 | -70.63565 | 4024 ft | 145 kts | 325° |
| 2026-04-26 21:06 | -33.42452 | -70.64224 | 4029 ft | 149 kts | 327° |
| 2026-04-26 21:06 | -33.41590 | -70.64914 | 4011 ft | 151 kts | 323° |
| 2026-04-26 21:06 | -33.40716 | -70.65672 | 3878 ft | 157 kts | 322° |
| 2026-04-26 21:06 | -33.39955 | -70.66544 | 3893 ft | 152 kts | 307° |
| 2026-04-26 21:07 | -33.39334 | -70.67572 | 3845 ft | 153 kts | 305° |
| 2026-04-26 21:07 | -33.38701 | -70.68596 | 3821 ft | 153 kts | 306° |
| 2026-04-26 21:07 | -33.38084 | -70.69627 | 3805 ft | 152 kts | 305° |
| 2026-04-26 21:07 | -33.37456 | -70.70602 | 3761 ft | 153 kts | 310° |
| 2026-04-26 21:08 | -33.36703 | -70.71506 | 3742 ft | 153 kts | 317° |
| 2026-04-26 21:08 | -33.35973 | -70.72423 | 3710 ft | 153 kts | 308° |
| 2026-04-26 21:08 | -33.35390 | -70.73498 | 3633 ft | 154 kts | 295° |
| 2026-04-26 21:08 | -33.35123 | -70.74733 | 3571 ft | 154 kts | 276° |
| 2026-04-26 21:09 | -33.35052 | -70.75977 | 3336 ft | 140 kts | 273° |
| 2026-04-26 21:09 | -33.34998 | -70.77081 | 3078 ft | 129 kts | 272° |
| 2026-04-26 21:09 | -33.35001 | -70.78111 | 2856 ft | 118 kts | 266° |
| 2026-04-26 21:09 | -33.35117 | -70.78962 | 2730 ft | 95 kts | 258° |
| 2026-04-26 21:10 | -33.35277 | -70.79717 | 2503 ft | 94 kts | 253° |
| 2026-04-26 21:10 | -33.35568 | -70.80411 | 2291 ft | 95 kts | 222° |
| 2026-04-26 21:10 | -33.36163 | -70.80523 | 1985 ft | 89 kts | 166° |
| 2026-04-26 21:10 | -33.36754 | -70.80394 | 1727 ft | 88 kts | 179° |
| 2026-04-26 21:11 | -33.37358 | -70.80361 | 1583 ft | 83 kts | 180° |
| 2026-04-26 21:11 | -33.37845 | -70.80342 | 1567 ft | 56 kts | 178° |
| 2026-04-26 21:11 | -33.38187 | -70.80320 | 1566 ft | 45 kts | 177° |
| 2026-04-26 21:11 | -33.38523 | -70.80294 | 1567 ft | 49 kts | 178° |
| 2026-04-26 21:12 | -33.38833 | -70.80286 | 1569 ft | 41 kts | 177° |
| 2026-04-26 21:12 | -33.39157 | -70.80268 | 1567 ft | 45 kts | 173° |
| 2026-04-26 21:12 | -33.39415 | -70.80134 | 1563 ft | 37 kts | 147° |
| 2026-04-26 21:12 | -33.39593 | -70.80033 | 1560 ft | 25 kts | 182° |
| 2026-04-26 21:13 | -33.39769 | -70.80032 | 1561 ft | 25 kts | 177° |